메인 페이지
METAR-TAF:

METAR-TAF

공항 :

매콤, 미시시피, 미국

위도: 31-10-42N, 경도: 090-28-19W, 고도: 126m

현재 날씨관측

예보는 19분 전, 14:29시(UTC)에 발표되었습니다.
북동3kt
온도 25°C
습도 74%
기압 1017 hPa
시정: 16.1km
고도 1400ft 상공 구름 많음

METAR: KMCB 291429Z AUTO 05003KT 10SM BKN014 25/20 A3004 RMK AO2 T02500200

시각: 09:48 (14:48 UTC)

예보

예보는 1 시간 52분 전, 12:56시(UTC)에 발표되었습니다.
예보 대상 시간: 29일 13시부터 30일 12시까지 (UTC)
kt
시정: 6.4km
고도 100ft 상공 구름 조금
고도 4000ft 상공 구름 많음
박무
29일 1400시부터 (UTC)
kt
시정: 10km
고도 1000ft 상공 구름 조금
고도 11000ft 상공 구름 보통
30일 1000시부터 (UTC)
여러 방향의 바람 4kt
시정: 4.8km
고도 15000ft 상공 구름 조금
박무
30일 1100시부터 (UTC)
여러 방향의 바람 4kt
시정: 10km
고도 8000ft 상공 구름 조금

TAF: KMCB 291256Z 2913/3012 00000KT 4SM BR FEW001 BKN040 FM291400 00000KT P6SM FEW010 SCT110 FM301000 VRB04KT 3SM BR FEW150 FM301100 VRB04KT P6SM FEW080

4,000개 이상의 공항 관측 자료 및 예보 (METAR 및 TAF 보고).

지도상에서 검색 가능한 기상관측소가 노란 점과 빨간 점으로 표시되어 있습니다.

기상관측소 명을 보려면 표시 위로 마우스를 이동하세요.

날씨 관측과 예보를 보려면 클릭하세요.

지도 변경 : 확대하려면 엑스 표시가 있는 녹색 버튼, 축소하려면 빼기 표시가 있는 녹색 버튼, 다음 페이지의 지도를 보려면 녹색 화살표를 클릭하세요.


METAR-TAF: